sensor_id;sensor_type;location;lat;lon;timestamp;P1;durP1;ratioP1;P2;durP2;ratioP2
75191;SDS011;63771;52.580;9.734;2023-01-09T00:00:18;3.90;;;2.90;;
75191;SDS011;63771;52.580;9.734;2023-01-09T00:02:44;3.80;;;3.50;;
75191;SDS011;63771;52.580;9.734;2023-01-09T00:05:11;5.63;;;2.70;;
75191;SDS011;63771;52.580;9.734;2023-01-09T00:07:37;3.03;;;2.78;;
75191;SDS011;63771;52.580;9.734;2023-01-09T00:10:03;4.38;;;3.03;;
75191;SDS011;63771;52.580;9.734;2023-01-09T00:12:29;3.95;;;3.03;;
75191;SDS011;63771;52.580;9.734;2023-01-09T00:14:54;5.00;;;2.80;;
75191;SDS011;63771;52.580;9.734;2023-01-09T00:17:19;3.30;;;3.00;;
75191;SDS011;63771;52.580;9.734;2023-01-09T00:19:44;3.47;;;3.27;;
75191;SDS011;63771;52.580;9.734;2023-01-09T00:22:10;3.60;;;3.33;;
75191;SDS011;63771;52.580;9.734;2023-01-09T00:24:35;3.20;;;3.00;;
75191;SDS011;63771;52.580;9.734;2023-01-09T00:27:01;3.38;;;3.08;;
75191;SDS011;63771;52.580;9.734;2023-01-09T00:29:26;3.50;;;3.20;;
75191;SDS011;63771;52.580;9.734;2023-01-09T00:31:52;4.05;;;2.97;;
75191;SDS011;63771;52.580;9.734;2023-01-09T00:34:17;4.37;;;2.43;;
75191;SDS011;63771;52.580;9.734;2023-01-09T00:36:43;3.03;;;2.83;;
75191;SDS011;63771;52.580;9.734;2023-01-09T00:39:08;3.87;;;2.70;;
75191;SDS011;63771;52.580;9.734;2023-01-09T00:41:38;4.20;;;2.85;;
75191;SDS011;63771;52.580;9.734;2023-01-09T00:44:08;3.53;;;3.05;;
75191;SDS011;63771;52.580;9.734;2023-01-09T00:46:38;2.88;;;2.60;;
75191;SDS011;63771;52.580;9.734;2023-01-09T00:49:08;2.97;;;2.60;;
75191;SDS011;63771;52.580;9.734;2023-01-09T00:51:35;4.38;;;2.83;;
75191;SDS011;63771;52.580;9.734;2023-01-09T00:54:01;2.72;;;2.53;;
75191;SDS011;63771;52.580;9.734;2023-01-09T00:56:28;2.53;;;2.38;;
75191;SDS011;63771;52.580;9.734;2023-01-09T00:58:53;2.88;;;2.67;;
75191;SDS011;63771;52.580;9.734;2023-01-09T01:01:19;3.10;;;2.90;;
75191;SDS011;63771;52.580;9.734;2023-01-09T01:03:45;2.35;;;2.25;;
75191;SDS011;63771;52.580;9.734;2023-01-09T01:06:10;3.08;;;2.72;;
75191;SDS011;63771;52.580;9.734;2023-01-09T01:08:54;2.40;;;2.20;;
75191;SDS011;63771;52.580;9.734;2023-01-09T01:11:20;3.08;;;2.65;;
75191;SDS011;63771;52.580;9.734;2023-01-09T01:13:45;2.90;;;2.33;;
75191;SDS011;63771;52.580;9.734;2023-01-09T01:16:11;2.50;;;2.30;;
75191;SDS011;63771;52.580;9.734;2023-01-09T01:18:37;2.15;;;1.95;;
75191;SDS011;63771;52.580;9.734;2023-01-09T01:21:07;2.35;;;2.25;;
75191;SDS011;63771;52.580;9.734;2023-01-09T01:23:33;2.15;;;1.92;;
75191;SDS011;63771;52.580;9.734;2023-01-09T01:26:03;2.42;;;2.22;;
75191;SDS011;63771;52.580;9.734;2023-01-09T01:28:30;2.78;;;2.58;;
75191;SDS011;63771;52.580;9.734;2023-01-09T01:30:55;2.23;;;2.07;;
75191;SDS011;63771;52.580;9.734;2023-01-09T01:33:20;2.17;;;2.07;;
75191;SDS011;63771;52.580;9.734;2023-01-09T01:35:46;2.07;;;1.97;;
75191;SDS011;63771;52.580;9.734;2023-01-09T01:38:11;2.10;;;2.00;;
75191;SDS011;63771;52.580;9.734;2023-01-09T01:40:36;8.77;;;2.00;;
75191;SDS011;63771;52.580;9.734;2023-01-09T01:43:04;2.30;;;2.10;;
75191;SDS011;63771;52.580;9.734;2023-01-09T01:45:29;1.85;;;1.75;;
75191;SDS011;63771;52.580;9.734;2023-01-09T01:47:58;1.92;;;1.75;;
75191;SDS011;63771;52.580;9.734;2023-01-09T01:55:42;2.53;;;2.00;;
75191;SDS011;63771;52.580;9.734;2023-01-09T01:58:12;2.85;;;2.00;;
75191;SDS011;63771;52.580;9.734;2023-01-09T02:00:39;2.00;;;1.80;;
75191;SDS011;63771;52.580;9.734;2023-01-09T02:03:08;2.75;;;2.50;;
75191;SDS011;63771;52.580;9.734;2023-01-09T02:05:34;2.10;;;1.90;;
75191;SDS011;63771;52.580;9.734;2023-01-09T02:08:01;3.05;;;2.17;;
75191;SDS011;63771;52.580;9.734;2023-01-09T02:10:27;2.13;;;2.03;;
75191;SDS011;63771;52.580;9.734;2023-01-09T02:12:53;3.40;;;1.85;;
75191;SDS011;63771;52.580;9.734;2023-01-09T02:15:18;1.70;;;1.70;;
75191;SDS011;63771;52.580;9.734;2023-01-09T02:20:31;2.30;;;2.10;;
75191;SDS011;63771;52.580;9.734;2023-01-09T02:26:01;5.00;;;2.42;;
75191;SDS011;63771;52.580;9.734;2023-01-09T02:34:11;2.05;;;1.85;;
75191;SDS011;63771;52.580;9.734;2023-01-09T02:37:00;1.92;;;1.83;;
75191;SDS011;63771;52.580;9.734;2023-01-09T02:44:47;2.58;;;2.30;;
75191;SDS011;63771;52.580;9.734;2023-01-09T02:49:45;2.22;;;2.13;;
75191;SDS011;63771;52.580;9.734;2023-01-09T02:57:48;1.80;;;1.70;;
75191;SDS011;63771;52.580;9.734;2023-01-09T03:00:55;2.35;;;2.25;;
75191;SDS011;63771;52.580;9.734;2023-01-09T03:03:39;1.67;;;1.52;;
75191;SDS011;63771;52.580;9.734;2023-01-09T03:08:56;2.35;;;1.73;;
75191;SDS011;63771;52.580;9.734;2023-01-09T03:11:27;1.90;;;1.80;;
75191;SDS011;63771;52.580;9.734;2023-01-09T03:14:03;2.33;;;2.15;;
75191;SDS011;63771;52.580;9.734;2023-01-09T03:16:36;2.40;;;1.80;;
75191;SDS011;63771;52.580;9.734;2023-01-09T03:19:06;2.03;;;1.92;;
75191;SDS011;63771;52.580;9.734;2023-01-09T03:21:36;1.63;;;1.52;;
75191;SDS011;63771;52.580;9.734;2023-01-09T03:24:02;4.00;;;1.90;;
75191;SDS011;63771;52.580;9.734;2023-01-09T03:26:28;1.75;;;1.65;;
75191;SDS011;63771;52.580;9.734;2023-01-09T03:28:55;1.67;;;1.58;;
75191;SDS011;63771;52.580;9.734;2023-01-09T03:31:21;1.55;;;1.45;;
75191;SDS011;63771;52.580;9.734;2023-01-09T03:33:47;2.08;;;1.73;;
75191;SDS011;63771;52.580;9.734;2023-01-09T03:36:13;1.58;;;1.48;;
75191;SDS011;63771;52.580;9.734;2023-01-09T03:38:40;1.58;;;1.40;;
75191;SDS011;63771;52.580;9.734;2023-01-09T03:41:06;2.00;;;1.90;;
75191;SDS011;63771;52.580;9.734;2023-01-09T03:43:31;1.80;;;1.70;;
75191;SDS011;63771;52.580;9.734;2023-01-09T03:45:57;1.38;;;1.38;;
75191;SDS011;63771;52.580;9.734;2023-01-09T03:48:22;1.83;;;1.38;;
75191;SDS011;63771;52.580;9.734;2023-01-09T03:50:48;1.55;;;1.45;;
75191;SDS011;63771;52.580;9.734;2023-01-09T03:53:15;1.60;;;1.50;;
75191;SDS011;63771;52.580;9.734;2023-01-09T03:55:47;1.50;;;1.50;;
75191;SDS011;63771;52.580;9.734;2023-01-09T03:58:15;1.90;;;1.35;;
75191;SDS011;63771;52.580;9.734;2023-01-09T04:00:41;1.70;;;1.60;;
75191;SDS011;63771;52.580;9.734;2023-01-09T04:05:35;1.73;;;1.63;;
75191;SDS011;63771;52.580;9.734;2023-01-09T04:08:00;1.30;;;1.20;;
75191;SDS011;63771;52.580;9.734;2023-01-09T04:10:26;1.38;;;1.27;;
75191;SDS011;63771;52.580;9.734;2023-01-09T04:12:51;1.35;;;1.27;;
75191;SDS011;63771;52.580;9.734;2023-01-09T04:15:17;1.77;;;1.67;;
75191;SDS011;63771;52.580;9.734;2023-01-09T04:17:43;2.65;;;1.60;;
75191;SDS011;63771;52.580;9.734;2023-01-09T04:20:08;1.97;;;1.80;;
75191;SDS011;63771;52.580;9.734;2023-01-09T04:22:34;1.63;;;1.52;;
75191;SDS011;63771;52.580;9.734;2023-01-09T04:24:59;2.37;;;2.13;;
75191;SDS011;63771;52.580;9.734;2023-01-09T04:27:25;2.47;;;1.73;;
75191;SDS011;63771;52.580;9.734;2023-01-09T04:29:50;2.00;;;1.75;;
75191;SDS011;63771;52.580;9.734;2023-01-09T04:32:16;1.50;;;1.40;;
75191;SDS011;63771;52.580;9.734;2023-01-09T04:34:41;1.33;;;1.07;;
75191;SDS011;63771;52.580;9.734;2023-01-09T04:37:06;1.65;;;1.55;;
75191;SDS011;63771;52.580;9.734;2023-01-09T04:39:32;1.52;;;1.50;;
75191;SDS011;63771;52.580;9.734;2023-01-09T04:41:57;1.60;;;1.50;;
75191;SDS011;63771;52.580;9.734;2023-01-09T04:44:23;1.30;;;1.20;;
75191;SDS011;63771;52.580;9.734;2023-01-09T04:46:52;1.27;;;1.27;;
75191;SDS011;63771;52.580;9.734;2023-01-09T04:49:19;0.90;;;0.90;;
75191;SDS011;63771;52.580;9.734;2023-01-09T04:51:45;1.10;;;1.10;;
75191;SDS011;63771;52.580;9.734;2023-01-09T04:54:10;1.00;;;1.00;;
75191;SDS011;63771;52.580;9.734;2023-01-09T04:56:36;1.07;;;1.07;;
75191;SDS011;63771;52.580;9.734;2023-01-09T04:59:02;1.13;;;1.13;;
75191;SDS011;63771;52.580;9.734;2023-01-09T05:01:28;1.95;;;1.95;;
75191;SDS011;63771;52.580;9.734;2023-01-09T05:03:54;1.30;;;1.20;;
75191;SDS011;63771;52.580;9.734;2023-01-09T05:06:19;0.65;;;0.65;;
75191;SDS011;63771;52.580;9.734;2023-01-09T05:08:44;1.30;;;1.30;;
75191;SDS011;63771;52.580;9.734;2023-01-09T05:11:10;0.87;;;0.87;;
75191;SDS011;63771;52.580;9.734;2023-01-09T05:13:35;1.30;;;1.20;;
75191;SDS011;63771;52.580;9.734;2023-01-09T05:16:00;1.43;;;1.43;;
75191;SDS011;63771;52.580;9.734;2023-01-09T05:18:26;1.10;;;1.10;;
75191;SDS011;63771;52.580;9.734;2023-01-09T05:20:51;1.10;;;1.08;;
75191;SDS011;63771;52.580;9.734;2023-01-09T05:23:17;1.23;;;0.95;;
75191;SDS011;63771;52.580;9.734;2023-01-09T05:25:42;1.15;;;1.05;;
75191;SDS011;63771;52.580;9.734;2023-01-09T05:28:07;1.23;;;1.20;;
75191;SDS011;63771;52.580;9.734;2023-01-09T05:30:33;1.33;;;1.27;;
75191;SDS011;63771;52.580;9.734;2023-01-09T05:32:58;2.13;;;1.17;;
75191;SDS011;63771;52.580;9.734;2023-01-09T05:35:23;0.80;;;0.80;;
75191;SDS011;63771;52.580;9.734;2023-01-09T05:37:49;0.90;;;0.90;;
75191;SDS011;63771;52.580;9.734;2023-01-09T05:40:14;1.10;;;0.90;;
75191;SDS011;63771;52.580;9.734;2023-01-09T05:42:40;1.30;;;0.98;;
75191;SDS011;63771;52.580;9.734;2023-01-09T05:45:06;1.10;;;0.90;;
75191;SDS011;63771;52.580;9.734;2023-01-09T05:47:32;1.52;;;1.38;;
75191;SDS011;63771;52.580;9.734;2023-01-09T05:49:57;1.03;;;1.03;;
75191;SDS011;63771;52.580;9.734;2023-01-09T05:52:24;0.98;;;0.98;;
75191;SDS011;63771;52.580;9.734;2023-01-09T05:54:49;0.90;;;0.90;;
75191;SDS011;63771;52.580;9.734;2023-01-09T05:57:15;0.90;;;0.90;;
75191;SDS011;63771;52.580;9.734;2023-01-09T05:59:40;1.02;;;1.02;;
75191;SDS011;63771;52.580;9.734;2023-01-09T06:02:06;0.90;;;0.90;;
75191;SDS011;63771;52.580;9.734;2023-01-09T06:04:31;1.00;;;1.00;;
75191;SDS011;63771;52.580;9.734;2023-01-09T06:06:56;1.13;;;1.13;;
75191;SDS011;63771;52.580;9.734;2023-01-09T06:09:22;1.00;;;0.73;;
75191;SDS011;63771;52.580;9.734;2023-01-09T06:11:47;1.00;;;1.00;;
75191;SDS011;63771;52.580;9.734;2023-01-09T06:14:12;1.10;;;0.98;;
75191;SDS011;63771;52.580;9.734;2023-01-09T06:16:38;1.30;;;1.20;;
75191;SDS011;63771;52.580;9.734;2023-01-09T06:19:03;1.65;;;1.10;;
75191;SDS011;63771;52.580;9.734;2023-01-09T06:21:30;1.40;;;1.40;;
75191;SDS011;63771;52.580;9.734;2023-01-09T06:23:56;1.50;;;1.40;;
75191;SDS011;63771;52.580;9.734;2023-01-09T06:26:22;1.77;;;1.30;;
75191;SDS011;63771;52.580;9.734;2023-01-09T06:28:48;1.23;;;1.23;;
75191;SDS011;63771;52.580;9.734;2023-01-09T06:31:14;1.88;;;1.65;;
75191;SDS011;63771;52.580;9.734;2023-01-09T06:33:39;1.40;;;1.37;;
75191;SDS011;63771;52.580;9.734;2023-01-09T06:36:04;1.70;;;1.60;;
75191;SDS011;63771;52.580;9.734;2023-01-09T06:38:30;2.83;;;1.55;;
75191;SDS011;63771;52.580;9.734;2023-01-09T06:40:55;1.70;;;1.60;;
75191;SDS011;63771;52.580;9.734;2023-01-09T06:43:20;1.70;;;1.60;;
75191;SDS011;63771;52.580;9.734;2023-01-09T06:45:46;2.00;;;1.90;;
75191;SDS011;63771;52.580;9.734;2023-01-09T06:48:12;2.00;;;1.90;;
75191;SDS011;63771;52.580;9.734;2023-01-09T06:50:37;1.83;;;1.73;;
75191;SDS011;63771;52.580;9.734;2023-01-09T06:53:03;2.17;;;2.00;;
75191;SDS011;63771;52.580;9.734;2023-01-09T06:55:28;2.20;;;2.10;;
75191;SDS011;63771;52.580;9.734;2023-01-09T06:57:53;2.20;;;2.00;;
75191;SDS011;63771;52.580;9.734;2023-01-09T07:00:19;3.33;;;2.03;;
75191;SDS011;63771;52.580;9.734;2023-01-09T07:02:45;2.30;;;2.05;;
75191;SDS011;63771;52.580;9.734;2023-01-09T07:05:10;2.55;;;2.28;;
75191;SDS011;63771;52.580;9.734;2023-01-09T07:07:39;3.90;;;2.33;;
75191;SDS011;63771;52.580;9.734;2023-01-09T07:10:05;2.65;;;2.45;;
75191;SDS011;63771;52.580;9.734;2023-01-09T07:12:32;2.65;;;2.45;;
75191;SDS011;63771;52.580;9.734;2023-01-09T07:14:58;3.03;;;2.83;;
75191;SDS011;63771;52.580;9.734;2023-01-09T07:17:23;2.57;;;2.37;;
75191;SDS011;63771;52.580;9.734;2023-01-09T07:19:49;2.85;;;2.58;;
75191;SDS011;63771;52.580;9.734;2023-01-09T07:22:14;3.67;;;2.92;;
75191;SDS011;63771;52.580;9.734;2023-01-09T07:24:40;3.70;;;3.40;;
75191;SDS011;63771;52.580;9.734;2023-01-09T07:27:08;4.80;;;4.05;;
75191;SDS011;63771;52.580;9.734;2023-01-09T07:29:33;5.05;;;3.83;;
75191;SDS011;63771;52.580;9.734;2023-01-09T07:31:58;8.90;;;4.63;;
75191;SDS011;63771;52.580;9.734;2023-01-09T07:34:24;6.27;;;3.63;;
75191;SDS011;63771;52.580;9.734;2023-01-09T07:36:49;4.83;;;3.60;;
75191;SDS011;63771;52.580;9.734;2023-01-09T07:39:15;5.47;;;4.45;;
75191;SDS011;63771;52.580;9.734;2023-01-09T07:41:40;5.68;;;4.10;;
75191;SDS011;63771;52.580;9.734;2023-01-09T07:44:06;5.03;;;3.92;;
75191;SDS011;63771;52.580;9.734;2023-01-09T07:46:32;8.00;;;4.47;;
75191;SDS011;63771;52.580;9.734;2023-01-09T07:48:57;6.05;;;4.70;;
75191;SDS011;63771;52.580;9.734;2023-01-09T07:51:23;7.33;;;4.23;;
75191;SDS011;63771;52.580;9.734;2023-01-09T07:53:48;5.13;;;4.43;;
75191;SDS011;63771;52.580;9.734;2023-01-09T07:56:13;5.90;;;4.03;;
75191;SDS011;63771;52.580;9.734;2023-01-09T07:58:39;4.70;;;4.07;;
75191;SDS011;63771;52.580;9.734;2023-01-09T08:01:05;7.53;;;4.38;;
75191;SDS011;63771;52.580;9.734;2023-01-09T08:03:31;8.43;;;4.82;;
75191;SDS011;63771;52.580;9.734;2023-01-09T08:05:59;6.10;;;4.38;;
75191;SDS011;63771;52.580;9.734;2023-01-09T08:08:25;6.07;;;4.72;;
75191;SDS011;63771;52.580;9.734;2023-01-09T08:10:50;6.87;;;5.97;;
75191;SDS011;63771;52.580;9.734;2023-01-09T08:13:15;6.23;;;5.57;;
75191;SDS011;63771;52.580;9.734;2023-01-09T08:15:41;7.47;;;5.68;;
75191;SDS011;63771;52.580;9.734;2023-01-09T08:18:06;6.40;;;4.53;;
75191;SDS011;63771;52.580;9.734;2023-01-09T08:20:31;8.03;;;4.60;;
75191;SDS011;63771;52.580;9.734;2023-01-09T08:22:57;7.10;;;5.17;;
75191;SDS011;63771;52.580;9.734;2023-01-09T08:25:22;7.33;;;5.17;;
75191;SDS011;63771;52.580;9.734;2023-01-09T08:27:47;7.77;;;6.10;;
75191;SDS011;63771;52.580;9.734;2023-01-09T08:30:13;6.55;;;5.80;;
75191;SDS011;63771;52.580;9.734;2023-01-09T08:32:39;8.95;;;5.60;;
75191;SDS011;63771;52.580;9.734;2023-01-09T08:35:05;8.50;;;6.35;;
75191;SDS011;63771;52.580;9.734;2023-01-09T08:37:31;8.20;;;4.95;;
75191;SDS011;63771;52.580;9.734;2023-01-09T08:39:57;6.40;;;5.35;;
75191;SDS011;63771;52.580;9.734;2023-01-09T08:42:22;7.30;;;5.10;;
75191;SDS011;63771;52.580;9.734;2023-01-09T08:45:06;7.40;;;5.47;;
75191;SDS011;63771;52.580;9.734;2023-01-09T08:47:52;7.13;;;5.97;;
75191;SDS011;63771;52.580;9.734;2023-01-09T08:50:17;10.48;;;6.22;;
75191;SDS011;63771;52.580;9.734;2023-01-09T08:52:43;10.13;;;6.22;;
75191;SDS011;63771;52.580;9.734;2023-01-09T08:55:08;7.10;;;6.07;;
75191;SDS011;63771;52.580;9.734;2023-01-09T08:57:33;14.03;;;6.10;;
75191;SDS011;63771;52.580;9.734;2023-01-09T08:59:59;7.60;;;6.00;;
75191;SDS011;63771;52.580;9.734;2023-01-09T09:02:24;7.68;;;5.70;;
75191;SDS011;63771;52.580;9.734;2023-01-09T09:04:49;12.90;;;6.70;;
75191;SDS011;63771;52.580;9.734;2023-01-09T09:07:17;12.95;;;7.82;;
75191;SDS011;63771;52.580;9.734;2023-01-09T09:12:17;10.45;;;6.00;;
75191;SDS011;63771;52.580;9.734;2023-01-09T09:14:43;8.98;;;6.40;;
75191;SDS011;63771;52.580;9.734;2023-01-09T09:17:34;8.77;;;6.28;;
75191;SDS011;63771;52.580;9.734;2023-01-09T09:20:00;16.33;;;7.18;;
75191;SDS011;63771;52.580;9.734;2023-01-09T09:22:26;9.85;;;6.60;;
75191;SDS011;63771;52.580;9.734;2023-01-09T09:24:51;12.52;;;6.95;;
75191;SDS011;63771;52.580;9.734;2023-01-09T09:27:17;14.27;;;6.68;;
75191;SDS011;63771;52.580;9.734;2023-01-09T09:29:42;10.65;;;6.47;;
75191;SDS011;63771;52.580;9.734;2023-01-09T09:32:07;11.77;;;5.97;;
75191;SDS011;63771;52.580;9.734;2023-01-09T09:34:33;9.40;;;5.88;;
75191;SDS011;63771;52.580;9.734;2023-01-09T09:36:58;9.02;;;5.97;;
75191;SDS011;63771;52.580;9.734;2023-01-09T09:39:23;6.57;;;5.20;;
75191;SDS011;63771;52.580;9.734;2023-01-09T09:42:01;7.07;;;5.18;;
75191;SDS011;63771;52.580;9.734;2023-01-09T09:44:53;13.63;;;5.60;;
75191;SDS011;63771;52.580;9.734;2023-01-09T09:47:50;10.25;;;4.63;;
75191;SDS011;63771;52.580;9.734;2023-01-09T09:53:15;7.10;;;4.22;;
75191;SDS011;63771;52.580;9.734;2023-01-09T09:55:59;6.45;;;4.38;;
75191;SDS011;63771;52.580;9.734;2023-01-09T09:58:28;6.53;;;3.80;;
75191;SDS011;63771;52.580;9.734;2023-01-09T10:00:55;4.50;;;3.95;;
75191;SDS011;63771;52.580;9.734;2023-01-09T10:06:01;6.95;;;3.13;;
75191;SDS011;63771;52.580;9.734;2023-01-09T10:11:03;5.25;;;3.58;;
75191;SDS011;63771;52.580;9.734;2023-01-09T10:13:32;7.03;;;4.22;;
75191;SDS011;63771;52.580;9.734;2023-01-09T10:19:20;4.00;;;2.80;;
75191;SDS011;63771;52.580;9.734;2023-01-09T10:22:08;4.72;;;2.95;;
75191;SDS011;63771;52.580;9.734;2023-01-09T10:24:53;4.18;;;2.83;;
75191;SDS011;63771;52.580;9.734;2023-01-09T10:30:31;4.57;;;2.72;;
75191;SDS011;63771;52.580;9.734;2023-01-09T10:33:09;8.80;;;2.97;;
75191;SDS011;63771;52.580;9.734;2023-01-09T10:38:37;3.72;;;2.70;;
75191;SDS011;63771;52.580;9.734;2023-01-09T10:41:08;3.13;;;2.35;;
75191;SDS011;63771;52.580;9.734;2023-01-09T10:43:41;3.63;;;2.30;;
75191;SDS011;63771;52.580;9.734;2023-01-09T10:46:15;3.83;;;2.15;;
75191;SDS011;63771;52.580;9.734;2023-01-09T10:48:48;3.97;;;1.77;;
75191;SDS011;63771;52.580;9.734;2023-01-09T10:51:18;4.65;;;2.10;;
75191;SDS011;63771;52.580;9.734;2023-01-09T10:53:46;2.47;;;2.20;;
75191;SDS011;63771;52.580;9.734;2023-01-09T10:56:17;2.80;;;1.80;;
75191;SDS011;63771;52.580;9.734;2023-01-09T10:58:46;1.70;;;1.60;;
75191;SDS011;63771;52.580;9.734;2023-01-09T11:01:12;4.03;;;2.10;;
75191;SDS011;63771;52.580;9.734;2023-01-09T11:03:38;2.20;;;1.60;;
75191;SDS011;63771;52.580;9.734;2023-01-09T11:06:04;1.92;;;1.83;;
75191;SDS011;63771;52.580;9.734;2023-01-09T11:08:52;4.13;;;1.13;;
75191;SDS011;63771;52.580;9.734;2023-01-09T11:11:30;1.40;;;1.30;;
75191;SDS011;63771;52.580;9.734;2023-01-09T11:14:12;1.80;;;1.45;;
75191;SDS011;63771;52.580;9.734;2023-01-09T11:16:49;4.50;;;1.42;;
75191;SDS011;63771;52.580;9.734;2023-01-09T11:19:19;1.50;;;1.40;;
75191;SDS011;63771;52.580;9.734;2023-01-09T11:21:45;3.08;;;1.63;;
75191;SDS011;63771;52.580;9.734;2023-01-09T11:26:49;2.28;;;1.10;;
75191;SDS011;63771;52.580;9.734;2023-01-09T11:29:17;1.58;;;1.48;;
75191;SDS011;63771;52.580;9.734;2023-01-09T11:31:57;2.53;;;1.45;;
75191;SDS011;63771;52.580;9.734;2023-01-09T11:34:24;4.25;;;1.85;;
75191;SDS011;63771;52.580;9.734;2023-01-09T11:36:52;1.65;;;1.55;;
75191;SDS011;63771;52.580;9.734;2023-01-09T11:39:26;3.78;;;1.80;;
75191;SDS011;63771;52.580;9.734;2023-01-09T11:41:54;2.42;;;2.10;;
75191;SDS011;63771;52.580;9.734;2023-01-09T11:44:22;2.53;;;1.80;;
75191;SDS011;63771;52.580;9.734;2023-01-09T11:46:48;3.78;;;1.55;;
75191;SDS011;63771;52.580;9.734;2023-01-09T11:51:39;2.60;;;2.50;;
75191;SDS011;63771;52.580;9.734;2023-01-09T11:56:46;2.38;;;1.58;;
75191;SDS011;63771;52.580;9.734;2023-01-09T11:59:13;1.92;;;1.73;;
75191;SDS011;63771;52.580;9.734;2023-01-09T12:04:12;4.00;;;2.23;;
75191;SDS011;63771;52.580;9.734;2023-01-09T12:17:46;1.20;;;1.20;;
75191;SDS011;63771;52.580;9.734;2023-01-09T12:20:35;1.00;;;0.95;;
75191;SDS011;63771;52.580;9.734;2023-01-09T12:26:14;1.58;;;1.35;;
75191;SDS011;63771;52.580;9.734;2023-01-09T12:32:08;2.80;;;1.40;;
75191;SDS011;63771;52.580;9.734;2023-01-09T12:35:00;5.45;;;2.10;;
75191;SDS011;63771;52.580;9.734;2023-01-09T12:40:42;1.77;;;1.35;;
75191;SDS011;63771;52.580;9.734;2023-01-09T12:43:13;4.57;;;1.40;;
75191;SDS011;63771;52.580;9.734;2023-01-09T12:48:56;1.42;;;1.33;;
75191;SDS011;63771;52.580;9.734;2023-01-09T12:51:38;2.17;;;1.42;;
75191;SDS011;63771;52.580;9.734;2023-01-09T12:54:10;2.47;;;1.45;;
75191;SDS011;63771;52.580;9.734;2023-01-09T12:56:56;3.75;;;1.42;;
75191;SDS011;63771;52.580;9.734;2023-01-09T12:59:32;3.00;;;1.67;;
75191;SDS011;63771;52.580;9.734;2023-01-09T13:02:02;1.75;;;1.65;;
75191;SDS011;63771;52.580;9.734;2023-01-09T13:04:36;2.83;;;1.33;;
75191;SDS011;63771;52.580;9.734;2023-01-09T13:07:10;1.70;;;1.38;;
75191;SDS011;63771;52.580;9.734;2023-01-09T13:09:43;2.20;;;2.10;;
75191;SDS011;63771;52.580;9.734;2023-01-09T13:12:14;4.93;;;1.83;;
75191;SDS011;63771;52.580;9.734;2023-01-09T13:15:02;3.25;;;2.95;;
75191;SDS011;63771;52.580;9.734;2023-01-09T13:20:19;2.38;;;1.42;;
75191;SDS011;63771;52.580;9.734;2023-01-09T13:22:47;1.58;;;1.52;;
75191;SDS011;63771;52.580;9.734;2023-01-09T13:28:05;1.85;;;1.50;;
75191;SDS011;63771;52.580;9.734;2023-01-09T13:30:43;1.48;;;1.40;;
75191;SDS011;63771;52.580;9.734;2023-01-09T13:35:48;1.33;;;1.25;;
75191;SDS011;63771;52.580;9.734;2023-01-09T13:38:17;3.60;;;2.70;;
75191;SDS011;63771;52.580;9.734;2023-01-09T13:40:46;1.88;;;1.77;;
75191;SDS011;63771;52.580;9.734;2023-01-09T13:43:11;2.05;;;1.48;;
75191;SDS011;63771;52.580;9.734;2023-01-09T13:45:39;1.95;;;1.40;;
75191;SDS011;63771;52.580;9.734;2023-01-09T13:50:38;1.42;;;1.33;;
75191;SDS011;63771;52.580;9.734;2023-01-09T14:00:50;3.05;;;2.70;;
75191;SDS011;63771;52.580;9.734;2023-01-09T14:03:24;1.92;;;1.83;;
75191;SDS011;63771;52.580;9.734;2023-01-09T14:08:22;4.03;;;3.17;;
75191;SDS011;63771;52.580;9.734;2023-01-09T14:10:51;2.67;;;2.47;;
75191;SDS011;63771;52.580;9.734;2023-01-09T14:13:26;2.20;;;2.05;;
75191;SDS011;63771;52.580;9.734;2023-01-09T14:16:02;2.25;;;2.08;;
75191;SDS011;63771;52.580;9.734;2023-01-09T14:26:00;1.42;;;1.33;;
75191;SDS011;63771;52.580;9.734;2023-01-09T14:28:27;2.67;;;1.75;;
75191;SDS011;63771;52.580;9.734;2023-01-09T14:35:47;2.80;;;1.42;;
75191;SDS011;63771;52.580;9.734;2023-01-09T14:41:19;2.20;;;2.05;;
75191;SDS011;63771;52.580;9.734;2023-01-09T14:43:58;2.33;;;1.90;;
75191;SDS011;63771;52.580;9.734;2023-01-09T14:46:25;2.30;;;1.85;;
75191;SDS011;63771;52.580;9.734;2023-01-09T14:51:26;4.40;;;2.10;;
75191;SDS011;63771;52.580;9.734;2023-01-09T14:53:53;2.35;;;2.15;;
75191;SDS011;63771;52.580;9.734;2023-01-09T14:56:28;4.35;;;2.85;;
75191;SDS011;63771;52.580;9.734;2023-01-09T14:59:04;4.43;;;3.13;;
75191;SDS011;63771;52.580;9.734;2023-01-09T15:01:43;6.25;;;3.22;;
75191;SDS011;63771;52.580;9.734;2023-01-09T15:04:53;3.47;;;2.63;;
75191;SDS011;63771;52.580;9.734;2023-01-09T15:07:03;3.20;;;2.20;;
75191;SDS011;63771;52.580;9.734;2023-01-09T15:09:31;6.47;;;2.90;;
75191;SDS011;63771;52.580;9.734;2023-01-09T15:12:14;5.97;;;3.25;;
75191;SDS011;63771;52.580;9.734;2023-01-09T15:14:43;4.47;;;2.38;;
75191;SDS011;63771;52.580;9.734;2023-01-09T15:17:15;5.20;;;3.15;;
75191;SDS011;63771;52.580;9.734;2023-01-09T15:19:45;6.88;;;4.05;;
75191;SDS011;63771;52.580;9.734;2023-01-09T15:22:26;5.13;;;3.55;;
75191;SDS011;63771;52.580;9.734;2023-01-09T15:24:54;6.03;;;3.90;;
75191;SDS011;63771;52.580;9.734;2023-01-09T15:27:19;7.55;;;3.58;;
75191;SDS011;63771;52.580;9.734;2023-01-09T15:32:17;2.00;;;1.80;;
75191;SDS011;63771;52.580;9.734;2023-01-09T15:34:47;3.20;;;1.52;;
75191;SDS011;63771;52.580;9.734;2023-01-09T15:37:27;2.95;;;1.52;;
75191;SDS011;63771;52.580;9.734;2023-01-09T15:39:57;1.00;;;1.00;;
75191;SDS011;63771;52.580;9.734;2023-01-09T15:42:25;2.45;;;1.58;;
75191;SDS011;63771;52.580;9.734;2023-01-09T15:47:42;1.10;;;1.10;;
75191;SDS011;63771;52.580;9.734;2023-01-09T15:50:11;1.20;;;0.80;;
75191;SDS011;63771;52.580;9.734;2023-01-09T15:52:38;2.17;;;1.00;;
75191;SDS011;63771;52.580;9.734;2023-01-09T15:55:14;1.85;;;1.00;;
75191;SDS011;63771;52.580;9.734;2023-01-09T15:57:50;3.50;;;0.85;;
75191;SDS011;63771;52.580;9.734;2023-01-09T16:00:36;4.28;;;1.45;;
75191;SDS011;63771;52.580;9.734;2023-01-09T16:03:23;1.50;;;1.23;;
75191;SDS011;63771;52.580;9.734;2023-01-09T16:05:50;2.72;;;1.20;;
75191;SDS011;63771;52.580;9.734;2023-01-09T16:08:30;1.27;;;1.27;;
75191;SDS011;63771;52.580;9.734;2023-01-09T16:11:03;1.13;;;1.08;;
75191;SDS011;63771;52.580;9.734;2023-01-09T16:13:31;2.78;;;1.33;;
75191;SDS011;63771;52.580;9.734;2023-01-09T16:16:01;1.17;;;1.13;;
75191;SDS011;63771;52.580;9.734;2023-01-09T16:18:28;1.83;;;0.93;;
75191;SDS011;63771;52.580;9.734;2023-01-09T16:21:16;3.95;;;1.48;;
75191;SDS011;63771;52.580;9.734;2023-01-09T16:23:50;3.55;;;1.40;;
75191;SDS011;63771;52.580;9.734;2023-01-09T16:26:19;1.10;;;1.10;;
75191;SDS011;63771;52.580;9.734;2023-01-09T16:28:47;1.85;;;0.90;;
75191;SDS011;63771;52.580;9.734;2023-01-09T16:31:17;2.95;;;1.42;;
75191;SDS011;63771;52.580;9.734;2023-01-09T16:33:47;2.17;;;1.80;;
75191;SDS011;63771;52.580;9.734;2023-01-09T16:36:18;1.88;;;1.30;;
75191;SDS011;63771;52.580;9.734;2023-01-09T16:38:45;3.38;;;1.33;;
75191;SDS011;63771;52.580;9.734;2023-01-09T16:41:14;1.02;;;1.02;;
75191;SDS011;63771;52.580;9.734;2023-01-09T16:44:00;1.30;;;1.23;;
75191;SDS011;63771;52.580;9.734;2023-01-09T16:46:27;1.33;;;1.33;;
75191;SDS011;63771;52.580;9.734;2023-01-09T16:48:53;2.08;;;0.85;;
75191;SDS011;63771;52.580;9.734;2023-01-09T16:51:19;1.90;;;1.38;;
75191;SDS011;63771;52.580;9.734;2023-01-09T16:53:46;1.67;;;1.58;;
75191;SDS011;63771;52.580;9.734;2023-01-09T16:58:42;1.38;;;1.30;;
75191;SDS011;63771;52.580;9.734;2023-01-09T17:01:08;1.85;;;1.75;;
75191;SDS011;63771;52.580;9.734;2023-01-09T17:03:34;2.17;;;1.23;;
75191;SDS011;63771;52.580;9.734;2023-01-09T17:06:00;3.20;;;1.60;;
75191;SDS011;63771;52.580;9.734;2023-01-09T17:08:36;1.27;;;1.27;;
75191;SDS011;63771;52.580;9.734;2023-01-09T17:11:02;1.58;;;1.52;;
75191;SDS011;63771;52.580;9.734;2023-01-09T17:13:28;1.42;;;1.38;;